Time;durP1;ratioP1;P1;durP2;ratioP2;P2;SDS_P1;SDS_P2;PMS_P1;PMS_P2;Temp;Humidity;BMP_temperature;BMP_pressure;BME280_temperature;BME280_humidity;BME280_pressure;Samples;Min_cycle;Max_cycle;Signal;HPM_P1;HPM_P2
2022/09/26 00:02:19;;;;;;;354.73;170.67;;;;;;;;;;5043545;28;20194;-54
2022/09/26 00:04:45;;;;;;;344.30;164.37;;;;;;;;;;5044573;28;21429;-55
2022/09/26 00:07:11;;;;;;;367.77;175.23;;;;;;;;;;5042850;28;20207;-55
2022/09/26 00:09:37;;;;;;;362.43;172.20;;;;;;;;;;5045031;28;20400;-55
2022/09/26 00:12:03;;;;;;;360.07;171.70;;;;;;;;;;5044523;28;20671;-55
2022/09/26 00:14:29;;;;;;;333.13;160.33;;;;;;;;;;5043061;28;20231;-55
2022/09/26 00:16:55;;;;;;;349.70;166.40;;;;;;;;;;5044480;28;20195;-54
2022/09/26 00:19:22;;;;;;;351.17;165.77;;;;;;;;;;5043706;28;20183;-55
2022/09/26 00:21:48;;;;;;;351.80;165.10;;;;;;;;;;5046724;28;20629;-54
2022/09/26 00:24:14;;;;;;;353.07;167.37;;;;;;;;;;5043896;28;20280;-54
2022/09/26 00:26:40;;;;;;;344.70;164.70;;;;;;;;;;5043154;28;20196;-54
2022/09/26 00:29:08;;;;;;;349.50;167.53;;;;;;;;;;5043594;28;20267;-55
2022/09/26 00:31:36;;;;;;;335.97;158.57;;;;;;;;;;5043168;28;20186;-54
2022/09/26 00:34:02;;;;;;;362.03;170.83;;;;;;;;;;5044553;28;20231;-54
2022/09/26 00:36:28;;;;;;;355.10;167.37;;;;;;;;;;5044741;28;20183;-55
2022/09/26 00:38:54;;;;;;;334.50;158.70;;;;;;;;;;5045605;28;20516;-54
2022/09/26 00:41:20;;;;;;;343.70;160.87;;;;;;;;;;5048728;28;20175;-54
2022/09/26 00:43:48;;;;;;;340.77;160.37;;;;;;;;;;5049664;28;20194;-54
2022/09/26 00:46:27;;;;;;;349.73;164.57;;;;;;;;;;5045354;28;20298;-54
2022/09/26 00:49:17;;;;;;;351.67;163.93;;;;;;;;;;5045544;28;20647;-54
2022/09/26 00:51:46;;;;;;;356.77;167.20;;;;;;;;;;5040398;28;22920;-54
2022/09/26 00:54:13;;;;;;;373.67;176.00;;;;;;;;;;5043646;28;20204;-54
2022/09/26 00:56:42;;;;;;;354.30;164.27;;;;;;;;;;5043063;28;20975;-55
2022/09/26 00:59:10;;;;;;;355.63;168.10;;;;;;;;;;5044284;28;20222;-54
2022/09/26 01:01:36;;;;;;;334.03;157.67;;;;;;;;;;5041632;28;20245;-54
2022/09/26 01:04:04;;;;;;;328.20;154.83;;;;;;;;;;5044730;28;20187;-54
2022/09/26 01:06:30;;;;;;;374.90;172.73;;;;;;;;;;5043577;28;20183;-54
2022/09/26 01:08:58;;;;;;;350.83;164.70;;;;;;;;;;5043886;28;20180;-54
2022/09/26 01:11:25;;;;;;;334.63;155.47;;;;;;;;;;5042017;28;20209;-54
2022/09/26 01:13:52;;;;;;;349.67;163.17;;;;;;;;;;5045514;28;20651;-54
2022/09/26 01:16:18;;;;;;;344.03;159.47;;;;;;;;;;5042921;28;20879;-55
2022/09/26 01:18:44;;;;;;;362.53;170.20;;;;;;;;;;5042860;28;20192;-54
2022/09/26 01:21:19;;;;;;;328.43;151.37;;;;;;;;;;5040635;28;20184;-54
2022/09/26 01:23:55;;;;;;;347.90;162.73;;;;;;;;;;5040424;28;20202;-54
2022/09/26 01:26:20;;;;;;;353.50;164.40;;;;;;;;;;5043017;28;20188;-54
2022/09/26 01:28:51;;;;;;;345.37;160.67;;;;;;;;;;5047713;28;20211;-54
2022/09/26 01:31:22;;;;;;;372.63;174.47;;;;;;;;;;5042534;28;20206;-55
2022/09/26 01:34:08;;;;;;;333.47;154.90;;;;;;;;;;5041878;28;20171;-54
2022/09/26 01:36:59;;;;;;;367.47;172.23;;;;;;;;;;5043319;28;20179;-54
2022/09/26 01:39:37;;;;;;;350.43;162.60;;;;;;;;;;5044815;28;20265;-54
2022/09/26 01:42:03;;;;;;;370.77;172.97;;;;;;;;;;5044110;28;20202;-54
2022/09/26 01:45:05;;;;;;;338.90;156.47;;;;;;;;;;5045581;28;20235;-54
2022/09/26 01:47:40;;;;;;;329.83;152.27;;;;;;;;;;4963984;28;20218;-55
2022/09/26 01:50:12;;;;;;;365.57;169.43;;;;;;;;;;5032804;28;20524;-55
2022/09/26 01:52:52;;;;;;;344.03;158.37;;;;;;;;;;5044734;28;20271;-54
2022/09/26 01:55:27;;;;;;;353.20;163.30;;;;;;;;;;5042952;28;20289;-54
2022/09/26 01:58:01;;;;;;;322.83;151.53;;;;;;;;;;5044229;28;20599;-54
2022/09/26 02:00:27;;;;;;;349.73;162.47;;;;;;;;;;5042993;28;20592;-54
2022/09/26 02:02:55;;;;;;;362.77;168.17;;;;;;;;;;5041612;28;20208;-54
2022/09/26 02:05:27;;;;;;;342.90;158.40;;;;;;;;;;5043261;28;20281;-54
2022/09/26 02:07:58;;;;;;;348.17;161.30;;;;;;;;;;5042573;28;20210;-54
2022/09/26 02:10:34;;;;;;;345.80;160.23;;;;;;;;;;5042479;28;20196;-54
2022/09/26 02:13:08;;;;;;;345.17;158.43;;;;;;;;;;5042634;28;20180;-54
2022/09/26 02:15:36;;;;;;;373.47;175.40;;;;;;;;;;5040062;28;20750;-54
2022/09/26 02:18:13;;;;;;;368.53;173.57;;;;;;;;;;5043576;28;20187;-54
2022/09/26 02:20:41;;;;;;;327.57;151.73;;;;;;;;;;5043017;28;20237;-54
2022/09/26 02:23:07;;;;;;;370.67;174.33;;;;;;;;;;5043752;28;20222;-55
2022/09/26 02:25:34;;;;;;;355.73;167.57;;;;;;;;;;5041745;28;20266;-54
2022/09/26 02:28:00;;;;;;;330.60;151.77;;;;;;;;;;5042079;28;20214;-54
2022/09/26 02:30:26;;;;;;;337.47;157.80;;;;;;;;;;5041556;28;20176;-54
2022/09/26 02:32:52;;;;;;;371.17;171.63;;;;;;;;;;5041663;28;20225;-55
2022/09/26 02:38:04;;;;;;;346.93;161.90;;;;;;;;;;5048056;28;20651;-54
2022/09/26 02:40:41;;;;;;;364.60;173.17;;;;;;;;;;5040472;28;20233;-54
2022/09/26 02:43:18;;;;;;;336.27;153.43;;;;;;;;;;5043590;28;20234;-54
2022/09/26 02:45:52;;;;;;;344.60;159.97;;;;;;;;;;5042046;28;20288;-55
2022/09/26 02:48:26;;;;;;;334.53;155.30;;;;;;;;;;5041656;28;20222;-55
2022/09/26 02:51:07;;;;;;;325.77;153.73;;;;;;;;;;5041352;28;20187;-54
2022/09/26 02:53:55;;;;;;;341.03;157.23;;;;;;;;;;5044008;28;20193;-54
2022/09/26 02:56:22;;;;;;;353.27;165.13;;;;;;;;;;5037721;28;20188;-54
2022/09/26 02:59:06;;;;;;;339.17;158.03;;;;;;;;;;5039068;28;20176;-54
2022/09/26 03:01:41;;;;;;;346.60;159.57;;;;;;;;;;5044520;28;20183;-54
2022/09/26 03:04:15;;;;;;;335.60;154.80;;;;;;;;;;5044250;28;20183;-54
2022/09/26 03:06:43;;;;;;;335.30;156.63;;;;;;;;;;5040400;28;20183;-54
2022/09/26 03:09:10;;;;;;;309.17;142.90;;;;;;;;;;5040903;28;20806;-54
2022/09/26 03:11:36;;;;;;;367.23;166.93;;;;;;;;;;5041103;28;20635;-54
2022/09/26 03:14:02;;;;;;;355.10;162.00;;;;;;;;;;5042568;28;20431;-54
2022/09/26 03:16:30;;;;;;;339.37;157.37;;;;;;;;;;5045525;28;20179;-54
2022/09/26 03:19:02;;;;;;;328.27;150.70;;;;;;;;;;5045744;28;20183;-55
2022/09/26 03:21:28;;;;;;;341.83;159.03;;;;;;;;;;5042442;28;20275;-55
2022/09/26 03:23:56;;;;;;;319.40;147.77;;;;;;;;;;5041889;28;20200;-54
2022/09/26 03:26:23;;;;;;;351.20;161.73;;;;;;;;;;5040713;28;20223;-54
2022/09/26 03:28:50;;;;;;;341.27;158.57;;;;;;;;;;5043833;28;20282;-54
2022/09/26 03:31:20;;;;;;;303.27;140.00;;;;;;;;;;5043289;28;20180;-54
2022/09/26 03:33:46;;;;;;;338.47;154.20;;;;;;;;;;5040277;28;20191;-54
2022/09/26 03:36:12;;;;;;;334.27;153.70;;;;;;;;;;5041456;28;20260;-54
2022/09/26 03:38:38;;;;;;;343.07;158.43;;;;;;;;;;5041276;28;20889;-54
2022/09/26 03:41:06;;;;;;;336.10;156.57;;;;;;;;;;5042193;28;20187;-55
2022/09/26 03:43:32;;;;;;;329.60;149.13;;;;;;;;;;5045209;28;20596;-54
2022/09/26 03:46:05;;;;;;;355.70;168.30;;;;;;;;;;5045475;28;20210;-54
2022/09/26 03:48:31;;;;;;;333.67;150.63;;;;;;;;;;5043693;28;20201;-54
2022/09/26 03:51:01;;;;;;;336.40;156.17;;;;;;;;;;5038734;28;20229;-54
2022/09/26 03:53:27;;;;;;;334.17;153.10;;;;;;;;;;5042062;28;20254;-54
2022/09/26 03:55:53;;;;;;;335.43;156.80;;;;;;;;;;5044621;28;20207;-54
2022/09/26 03:58:19;;;;;;;336.60;156.27;;;;;;;;;;5037345;28;20261;-54
2022/09/26 04:00:45;;;;;;;332.40;152.17;;;;;;;;;;5041871;28;20241;-54
2022/09/26 04:03:11;;;;;;;328.77;149.77;;;;;;;;;;5043602;28;20541;-54
2022/09/26 04:05:36;;;;;;;356.30;165.03;;;;;;;;;;5040643;28;20200;-55
2022/09/26 04:08:02;;;;;;;327.23;151.77;;;;;;;;;;5040756;28;20217;-54
2022/09/26 04:10:28;;;;;;;364.73;168.57;;;;;;;;;;5043306;28;20285;-54
2022/09/26 04:12:55;;;;;;;329.83;151.63;;;;;;;;;;5045740;28;20191;-54
2022/09/26 04:15:21;;;;;;;371.73;173.97;;;;;;;;;;5043123;28;20214;-54
2022/09/26 04:17:47;;;;;;;324.83;150.33;;;;;;;;;;5045210;28;20191;-55
2022/09/26 04:20:13;;;;;;;338.07;155.13;;;;;;;;;;5041498;28;20183;-54
2022/09/26 04:22:40;;;;;;;317.47;147.47;;;;;;;;;;5045683;28;20195;-54
2022/09/26 04:25:06;;;;;;;329.13;154.40;;;;;;;;;;5041477;28;20207;-54
2022/09/26 04:27:32;;;;;;;311.80;144.10;;;;;;;;;;5040830;28;23381;-54
2022/09/26 04:29:58;;;;;;;354.67;163.83;;;;;;;;;;5043360;28;20482;-54
2022/09/26 04:32:24;;;;;;;327.27;152.83;;;;;;;;;;5046309;28;20618;-54
2022/09/26 04:34:50;;;;;;;345.73;158.60;;;;;;;;;;5045589;28;20250;-54
2022/09/26 04:37:19;;;;;;;337.90;155.10;;;;;;;;;;5043220;28;20183;-54
2022/09/26 04:39:46;;;;;;;329.53;150.70;;;;;;;;;;5038525;28;20226;-54
2022/09/26 04:42:12;;;;;;;333.03;155.50;;;;;;;;;;5046188;28;20524;-54
2022/09/26 04:44:37;;;;;;;332.37;154.17;;;;;;;;;;5049625;28;20361;-54
2022/09/26 04:47:03;;;;;;;320.37;148.27;;;;;;;;;;5045022;28;20253;-54
2022/09/26 04:49:29;;;;;;;337.17;154.37;;;;;;;;;;5044597;28;20328;-54
2022/09/26 04:51:55;;;;;;;333.87;152.43;;;;;;;;;;5047329;28;20179;-55
2022/09/26 04:54:22;;;;;;;324.07;149.73;;;;;;;;;;5048452;28;20202;-54
2022/09/26 04:56:48;;;;;;;328.50;151.40;;;;;;;;;;5049752;28;20184;-54
2022/09/26 04:59:14;;;;;;;366.03;167.57;;;;;;;;;;5048369;28;20338;-55
2022/09/26 05:01:40;;;;;;;301.30;139.10;;;;;;;;;;5046297;28;20179;-54
2022/09/26 05:04:08;;;;;;;338.27;154.93;;;;;;;;;;5045057;28;20172;-54
2022/09/26 05:06:34;;;;;;;336.27;153.67;;;;;;;;;;5042139;28;20186;-55
2022/09/26 05:09:00;;;;;;;330.90;152.67;;;;;;;;;;5039064;28;20407;-56
2022/09/26 05:11:26;;;;;;;335.33;153.60;;;;;;;;;;5043297;28;20279;-55
2022/09/26 05:13:52;;;;;;;396.63;178.57;;;;;;;;;;5041418;28;20361;-55
2022/09/26 05:16:18;;;;;;;351.40;159.47;;;;;;;;;;5021906;28;20319;-55
2022/09/26 05:18:48;;;;;;;338.17;156.00;;;;;;;;;;5035407;28;20322;-55
2022/09/26 05:21:14;;;;;;;362.17;164.53;;;;;;;;;;5030463;28;20218;-55
2022/09/26 05:26:34;;;;;;;335.60;151.47;;;;;;;;;;5033782;28;20322;-55
2022/09/26 05:29:03;;;;;;;335.03;151.10;;;;;;;;;;5047111;28;20183;-55
2022/09/26 05:31:31;;;;;;;349.60;161.03;;;;;;;;;;5041847;28;20191;-55
2022/09/26 05:33:57;;;;;;;375.10;168.93;;;;;;;;;;5038274;28;20333;-55
2022/09/26 05:36:24;;;;;;;373.17;169.83;;;;;;;;;;5039395;28;20407;-55
2022/09/26 05:38:50;;;;;;;389.47;178.63;;;;;;;;;;5035671;28;20188;-55
2022/09/26 05:41:16;;;;;;;407.00;183.30;;;;;;;;;;5032599;28;20183;-55
2022/09/26 05:43:42;;;;;;;346.63;160.03;;;;;;;;;;5038115;28;20211;-55
2022/09/26 05:46:10;;;;;;;338.73;155.37;;;;;;;;;;5042777;28;20211;-55
2022/09/26 05:48:37;;;;;;;408.00;185.73;;;;;;;;;;5031349;28;20230;-55
2022/09/26 05:51:11;;;;;;;376.00;170.97;;;;;;;;;;5036175;28;20190;-55
2022/09/26 05:53:37;;;;;;;387.87;173.40;;;;;;;;;;5037266;28;20176;-55
2022/09/26 05:56:04;;;;;;;380.63;169.93;;;;;;;;;;5031260;28;20921;-55
2022/09/26 05:58:31;;;;;;;407.33;183.30;;;;;;;;;;5032622;28;20568;-55
2022/09/26 06:01:16;;;;;;;424.13;195.20;;;;;;;;;;5029843;28;20427;-55
2022/09/26 06:03:43;;;;;;;383.57;176.17;;;;;;;;;;5026040;28;20500;-55
2022/09/26 06:06:11;;;;;;;395.17;178.00;;;;;;;;;;5029476;28;20592;-55
2022/09/26 06:08:37;;;;;;;357.33;163.57;;;;;;;;;;5028679;28;20216;-55
2022/09/26 06:11:05;;;;;;;387.30;178.50;;;;;;;;;;5027941;28;20197;-55
2022/09/26 06:13:31;;;;;;;378.03;172.43;;;;;;;;;;5003000;28;20187;-55
2022/09/26 06:16:00;;;;;;;380.13;170.17;;;;;;;;;;5032186;28;20857;-55
2022/09/26 06:18:26;;;;;;;381.70;170.30;;;;;;;;;;5031402;28;20191;-56
2022/09/26 06:20:52;;;;;;;360.87;161.00;;;;;;;;;;5034844;28;20544;-56
2022/09/26 06:23:18;;;;;;;409.37;182.30;;;;;;;;;;5028991;28;20188;-55
2022/09/26 06:25:44;;;;;;;424.97;187.53;;;;;;;;;;5016777;28;20721;-55
2022/09/26 06:28:10;;;;;;;414.80;189.40;;;;;;;;;;5029964;28;20306;-56
2022/09/26 06:30:36;;;;;;;378.60;173.00;;;;;;;;;;5039306;28;20188;-56
2022/09/26 06:33:02;;;;;;;637.43;300.63;;;;;;;;;;5008674;28;20199;-56
2022/09/26 06:35:29;;;;;;;383.30;170.33;;;;;;;;;;5005499;28;20809;-55
2022/09/26 06:37:57;;;;;;;395.30;177.67;;;;;;;;;;5024515;28;20187;-55
2022/09/26 06:40:24;;;;;;;387.20;171.07;;;;;;;;;;5023924;28;20257;-55
2022/09/26 06:42:49;;;;;;;388.40;178.20;;;;;;;;;;5021892;28;20226;-55
2022/09/26 06:45:15;;;;;;;354.20;162.53;;;;;;;;;;5037952;28;20227;-55
2022/09/26 06:47:41;;;;;;;344.17;156.90;;;;;;;;;;5039954;28;20305;-55
2022/09/26 06:50:08;;;;;;;396.97;177.67;;;;;;;;;;5037315;28;20180;-55
2022/09/26 06:52:34;;;;;;;377.27;164.90;;;;;;;;;;5022474;28;20184;-55
2022/09/26 06:55:01;;;;;;;415.23;188.73;;;;;;;;;;5037793;28;20196;-55
2022/09/26 06:57:29;;;;;;;401.57;182.00;;;;;;;;;;5036970;28;20191;-55
2022/09/26 06:59:55;;;;;;;356.27;159.27;;;;;;;;;;5038075;28;20192;-55
2022/09/26 07:02:22;;;;;;;324.97;143.20;;;;;;;;;;5035778;28;20187;-55
2022/09/26 07:04:48;;;;;;;401.80;177.77;;;;;;;;;;5027030;28;20283;-55
2022/09/26 07:07:14;;;;;;;411.43;187.83;;;;;;;;;;5032001;28;20573;-55
2022/09/26 07:09:40;;;;;;;774.77;367.43;;;;;;;;;;5014340;28;20179;-55
2022/09/26 07:12:06;;;;;;;503.33;224.57;;;;;;;;;;5003741;28;20214;-55
2022/09/26 07:14:32;;;;;;;368.30;164.97;;;;;;;;;;5025023;28;20261;-55
2022/09/26 07:16:58;;;;;;;375.13;158.17;;;;;;;;;;5023830;28;20180;-55
2022/09/26 07:19:24;;;;;;;376.17;159.20;;;;;;;;;;5027219;28;20529;-53
2022/09/26 07:21:50;;;;;;;450.27;183.87;;;;;;;;;;5016414;28;20180;-53
2022/09/26 07:24:16;;;;;;;455.00;206.17;;;;;;;;;;5020998;28;20305;-53
2022/09/26 07:26:42;;;;;;;412.07;171.67;;;;;;;;;;5024897;28;20209;-53
2022/09/26 07:29:09;;;;;;;402.77;166.10;;;;;;;;;;5012470;28;20187;-53
2022/09/26 07:31:35;;;;;;;461.67;191.33;;;;;;;;;;5022906;28;20184;-55
2022/09/26 07:34:02;;;;;;;417.30;168.87;;;;;;;;;;5016756;28;20184;-55
2022/09/26 07:36:29;;;;;;;424.67;174.63;;;;;;;;;;5021054;28;20187;-55
2022/09/26 07:38:55;;;;;;;426.23;175.43;;;;;;;;;;5015808;28;20227;-55
2022/09/26 07:41:21;;;;;;;427.67;178.00;;;;;;;;;;5018358;28;20282;-55
2022/09/26 07:43:47;;;;;;;660.30;256.63;;;;;;;;;;5010561;28;20184;-55
2022/09/26 07:51:59;;;;;;;411.83;168.03;;;;;;;;;;4990367;28;20188;-55
2022/09/26 07:54:25;;;;;;;337.27;152.57;;;;;;;;;;5025971;28;20211;-55
2022/09/26 07:56:52;;;;;;;392.57;173.90;;;;;;;;;;5024697;28;20187;-55
2022/09/26 07:59:18;;;;;;;368.13;158.90;;;;;;;;;;5029964;28;20237;-55
2022/09/26 08:01:45;;;;;;;349.90;152.03;;;;;;;;;;5038899;28;20176;-55
2022/09/26 08:04:12;;;;;;;426.93;186.93;;;;;;;;;;5034032;28;20219;-55
2022/09/26 08:06:38;;;;;;;426.57;199.37;;;;;;;;;;5030708;28;20184;-55
2022/09/26 08:09:04;;;;;;;466.90;195.73;;;;;;;;;;5025933;28;20250;-55
2022/09/26 08:11:30;;;;;;;387.00;170.50;;;;;;;;;;5026349;28;20635;-55
2022/09/26 08:13:56;;;;;;;413.00;179.53;;;;;;;;;;5030640;28;20198;-55
2022/09/26 08:16:22;;;;;;;397.40;188.50;;;;;;;;;;5025644;28;20183;-55
2022/09/26 08:18:52;;;;;;;453.53;213.33;;;;;;;;;;5024711;28;20213;-55
2022/09/26 08:21:18;;;;;;;350.70;163.93;;;;;;;;;;5041728;28;20791;-55
2022/09/26 08:23:45;;;;;;;433.07;203.50;;;;;;;;;;5027691;28;20192;-55
2022/09/26 08:26:11;;;;;;;396.37;185.20;;;;;;;;;;5030693;28;20512;-55
2022/09/26 08:28:37;;;;;;;333.23;155.23;;;;;;;;;;5040185;28;20260;-55
2022/09/26 08:31:04;;;;;;;415.67;191.77;;;;;;;;;;5025780;28;20257;-55
2022/09/26 08:33:34;;;;;;;409.07;187.20;;;;;;;;;;5033629;28;20193;-55
2022/09/26 08:36:07;;;;;;;405.27;186.70;;;;;;;;;;5032836;28;20309;-55
2022/09/26 08:38:34;;;;;;;449.37;206.90;;;;;;;;;;5028216;28;20195;-55
2022/09/26 08:41:00;;;;;;;396.57;182.33;;;;;;;;;;5038016;28;20580;-55
2022/09/26 08:43:29;;;;;;;434.60;201.10;;;;;;;;;;5032925;28;20294;-55
2022/09/26 08:48:35;;;;;;;441.50;207.33;;;;;;;;;;5025325;28;20211;-55
2022/09/26 08:51:20;;;;;;;360.07;166.87;;;;;;;;;;5027978;28;20431;-55
2022/09/26 08:53:50;;;;;;;444.00;203.10;;;;;;;;;;5028109;28;20635;-55
2022/09/26 08:56:19;;;;;;;361.33;163.03;;;;;;;;;;5031145;28;20621;-55
2022/09/26 08:58:50;;;;;;;433.13;198.83;;;;;;;;;;5038213;28;20218;-55
2022/09/26 09:01:22;;;;;;;329.00;149.63;;;;;;;;;;5016035;28;20578;-55
2022/09/26 09:03:52;;;;;;;377.23;172.60;;;;;;;;;;5029099;28;20552;-55
2022/09/26 09:06:18;;;;;;;371.73;171.40;;;;;;;;;;5015996;28;20204;-55
2022/09/26 09:08:54;;;;;;;381.07;175.17;;;;;;;;;;5029391;28;20207;-55
2022/09/26 09:11:39;;;;;;;396.53;176.10;;;;;;;;;;5015844;28;20265;-55
2022/09/26 09:17:23;;;;;;;452.87;196.90;;;;;;;;;;5088673;27;20912;-53
2022/09/26 09:19:49;;;;;;;434.03;189.33;;;;;;;;;;5046387;28;20239;-55
2022/09/26 09:22:31;;;;;;;414.17;180.93;;;;;;;;;;5045716;28;20183;-55
2022/09/26 09:25:00;;;;;;;410.97;184.03;;;;;;;;;;5049702;28;20205;-55
2022/09/26 09:27:47;;;;;;;367.17;168.70;;;;;;;;;;5052236;28;20272;-55
2022/09/26 09:30:29;;;;;;;406.47;192.07;;;;;;;;;;5047417;28;20183;-55
2022/09/26 09:32:59;;;;;;;440.83;199.37;;;;;;;;;;5038946;28;20179;-55
2022/09/26 09:35:38;;;;;;;439.17;199.57;;;;;;;;;;5036879;28;20358;-61
2022/09/26 09:38:05;;;;;;;487.50;225.80;;;;;;;;;;5036638;28;20586;-55
2022/09/26 09:40:36;;;;;;;439.13;201.13;;;;;;;;;;5037316;28;20790;-55
2022/09/26 09:43:14;;;;;;;368.83;172.77;;;;;;;;;;5039618;28;20195;-55
2022/09/26 09:45:43;;;;;;;397.50;185.67;;;;;;;;;;5038737;28;20882;-55
2022/09/26 09:48:11;;;;;;;448.20;205.50;;;;;;;;;;5036817;28;20204;-55
2022/09/26 09:50:44;;;;;;;375.30;171.07;;;;;;;;;;5038809;28;20187;-55
2022/09/26 09:53:24;;;;;;;409.47;185.97;;;;;;;;;;5037452;28;20189;-55
2022/09/26 09:56:01;;;;;;;370.57;170.53;;;;;;;;;;5037000;28;20298;-55
2022/09/26 09:58:33;;;;;;;383.83;178.83;;;;;;;;;;5038501;28;20186;-54
2022/09/26 10:01:07;;;;;;;495.27;230.33;;;;;;;;;;5019563;28;20671;-54
2022/09/26 10:03:54;;;;;;;390.77;187.13;;;;;;;;;;5044847;28;20661;-54
2022/09/26 10:06:21;;;;;;;379.87;181.23;;;;;;;;;;5046075;28;20570;-54
2022/09/26 10:08:49;;;;;;;404.47;188.73;;;;;;;;;;5046903;28;20491;-54
2022/09/26 10:11:21;;;;;;;395.80;183.90;;;;;;;;;;5054099;28;20190;-54
2022/09/26 10:13:48;;;;;;;447.87;204.13;;;;;;;;;;5037568;28;20176;-56
2022/09/26 10:16:14;;;;;;;363.37;165.37;;;;;;;;;;5052192;28;20662;-56
2022/09/26 10:18:55;;;;;;;402.43;189.57;;;;;;;;;;5046961;28;20611;-56
2022/09/26 10:21:25;;;;;;;430.13;203.37;;;;;;;;;;5047057;28;20597;-56
2022/09/26 10:23:51;;;;;;;418.23;196.97;;;;;;;;;;5037266;28;20300;-56
2022/09/26 10:26:23;;;;;;;380.10;184.30;;;;;;;;;;5045197;28;20253;-56
2022/09/26 10:28:54;;;;;;;425.40;204.37;;;;;;;;;;5037989;28;20184;-56
2022/09/26 10:31:28;;;;;;;366.43;179.47;;;;;;;;;;5041850;28;20644;-56
2022/09/26 10:33:58;;;;;;;385.13;187.60;;;;;;;;;;5035622;28;20336;-56
2022/09/26 10:36:36;;;;;;;426.57;210.73;;;;;;;;;;5039250;28;20257;-56
2022/09/26 10:41:56;;;;;;;396.60;194.20;;;;;;;;;;5039570;28;20202;-56
2022/09/26 10:44:24;;;;;;;364.40;177.27;;;;;;;;;;5039907;28;20211;-56
2022/09/26 10:46:51;;;;;;;427.57;209.87;;;;;;;;;;5031184;28;20207;-56
2022/09/26 10:49:22;;;;;;;365.33;178.40;;;;;;;;;;5031660;28;20218;-56
2022/09/26 10:51:53;;;;;;;433.90;210.53;;;;;;;;;;5029513;28;20196;-56
2022/09/26 10:54:21;;;;;;;461.97;222.77;;;;;;;;;;5030183;28;20548;-56
2022/09/26 10:56:49;;;;;;;456.43;222.57;;;;;;;;;;5026930;28;20247;-56
2022/09/26 10:59:16;;;;;;;452.60;220.33;;;;;;;;;;5016199;28;20321;-56
2022/09/26 11:01:44;;;;;;;465.60;226.43;;;;;;;;;;5024330;28;20422;-56
2022/09/26 11:07:23;;;;;;;424.43;208.37;;;;;;;;;;5010260;28;20197;-56
2022/09/26 11:09:49;;;;;;;395.30;192.87;;;;;;;;;;5019261;28;20285;-56
2022/09/26 11:12:28;;;;;;;444.50;223.10;;;;;;;;;;5032283;28;20697;-56
2022/09/26 11:14:58;;;;;;;396.07;203.90;;;;;;;;;;5029355;28;20227;-56
2022/09/26 11:17:43;;;;;;;377.30;189.17;;;;;;;;;;5027100;28;20568;-55
2022/09/26 11:20:12;;;;;;;416.00;211.37;;;;;;;;;;5026922;28;20180;-56
2022/09/26 11:22:43;;;;;;;402.27;207.53;;;;;;;;;;5033103;28;20175;-56
2022/09/26 11:25:24;;;;;;;397.77;201.93;;;;;;;;;;5036553;28;20615;-55
2022/09/26 11:27:54;;;;;;;398.20;206.50;;;;;;;;;;5027651;28;20176;-55
2022/09/26 11:30:21;;;;;;;400.67;207.27;;;;;;;;;;5033992;28;20183;-55
2022/09/26 11:32:55;;;;;;;385.20;203.93;;;;;;;;;;5035238;28;20183;-55
2022/09/26 11:35:42;;;;;;;380.60;198.97;;;;;;;;;;5036253;28;20196;-56
2022/09/26 11:38:25;;;;;;;412.33;207.70;;;;;;;;;;5038834;28;20250;-56
2022/09/26 11:40:58;;;;;;;365.77;188.10;;;;;;;;;;5037644;28;20637;-56
2022/09/26 11:43:34;;;;;;;388.77;199.43;;;;;;;;;;5033236;28;20191;-56
2022/09/26 11:46:07;;;;;;;413.57;210.70;;;;;;;;;;5037932;28;20230;-56
2022/09/26 11:48:59;;;;;;;363.57;187.97;;;;;;;;;;5035365;28;20218;-56
2022/09/26 11:51:30;;;;;;;381.83;198.67;;;;;;;;;;5036923;28;20258;-56
2022/09/26 11:54:08;;;;;;;447.73;233.30;;;;;;;;;;5034963;28;20176;-56
2022/09/26 11:56:43;;;;;;;409.77;213.70;;;;;;;;;;5038627;28;20199;-56
2022/09/26 11:59:27;;;;;;;402.33;215.20;;;;;;;;;;5035413;28;22525;-56
2022/09/26 12:02:09;;;;;;;369.57;197.50;;;;;;;;;;5038984;28;20191;-56
2022/09/26 12:04:46;;;;;;;394.80;209.97;;;;;;;;;;5035353;28;20581;-56
2022/09/26 12:07:20;;;;;;;367.03;198.50;;;;;;;;;;5038335;28;20213;-56
2022/09/26 12:10:15;;;;;;;374.90;200.73;;;;;;;;;;5035344;28;20209;-56
2022/09/26 12:12:45;;;;;;;447.77;239.17;;;;;;;;;;5027983;28;20198;-56
2022/09/26 12:15:20;;;;;;;355.03;193.57;;;;;;;;;;5031026;28;20212;-56
2022/09/26 12:17:59;;;;;;;403.10;218.77;;;;;;;;;;5034291;28;20275;-56
2022/09/26 12:20:34;;;;;;;409.27;220.33;;;;;;;;;;5025429;28;20301;-56
2022/09/26 12:23:06;;;;;;;379.77;209.10;;;;;;;;;;5032520;28;20269;-56
2022/09/26 12:25:35;;;;;;;398.17;214.10;;;;;;;;;;5030622;28;20215;-56
2022/09/26 12:28:00;;;;;;;436.70;232.93;;;;;;;;;;5022904;28;20565;-56
2022/09/26 12:30:34;;;;;;;391.57;213.23;;;;;;;;;;5021263;28;20180;-53
2022/09/26 12:33:08;;;;;;;425.10;229.37;;;;;;;;;;5025234;28;20180;-54
2022/09/26 12:35:42;;;;;;;459.90;238.43;;;;;;;;;;5023034;28;20248;-54
2022/09/26 12:38:08;;;;;;;405.73;220.33;;;;;;;;;;5029835;28;20274;-54
2022/09/26 12:40:53;;;;;;;396.67;214.77;;;;;;;;;;5026985;28;20270;-54
2022/09/26 12:43:34;;;;;;;424.13;222.20;;;;;;;;;;5028857;28;20195;-54
2022/09/26 12:46:00;;;;;;;367.23;191.93;;;;;;;;;;5028652;28;20231;-54
2022/09/26 12:48:32;;;;;;;383.93;199.63;;;;;;;;;;5030910;28;20269;-54
2022/09/26 12:51:27;;;;;;;406.83;211.57;;;;;;;;;;5027648;28;20322;-54
2022/09/26 12:54:17;;;;;;;440.43;228.13;;;;;;;;;;5035118;28;20187;-54
2022/09/26 12:56:48;;;;;;;394.90;206.23;;;;;;;;;;5027367;28;20240;-54
2022/09/26 12:59:14;;;;;;;438.87;220.47;;;;;;;;;;5032386;28;20251;-54
2022/09/26 13:01:49;;;;;;;472.63;212.20;;;;;;;;;;5024724;28;20266;-55
2022/09/26 13:04:34;;;;;;;457.53;213.20;;;;;;;;;;5022703;28;20351;-55
2022/09/26 13:07:03;;;;;;;397.90;200.70;;;;;;;;;;5019372;28;20215;-54
2022/09/26 13:09:42;;;;;;;408.50;202.10;;;;;;;;;;5010619;28;20192;-54
2022/09/26 13:12:20;;;;;;;435.33;216.50;;;;;;;;;;5021795;28;21006;-55
2022/09/26 13:14:46;;;;;;;425.93;220.77;;;;;;;;;;5030279;28;20599;-55
2022/09/26 13:17:14;;;;;;;420.90;220.43;;;;;;;;;;5023464;28;20187;-55
2022/09/26 13:19:40;;;;;;;630.73;334.97;;;;;;;;;;5018349;28;20625;-54
2022/09/26 13:22:16;;;;;;;422.60;225.97;;;;;;;;;;5023874;28;20191;-55
2022/09/26 13:24:49;;;;;;;400.60;215.70;;;;;;;;;;5026384;28;20568;-55
2022/09/26 13:27:20;;;;;;;342.33;187.10;;;;;;;;;;5028013;28;20211;-55
2022/09/26 13:29:49;;;;;;;404.23;221.40;;;;;;;;;;5033494;28;20179;-55
2022/09/26 13:32:16;;;;;;;460.83;244.73;;;;;;;;;;5004242;28;20181;-55
2022/09/26 13:34:46;;;;;;;493.03;286.80;;;;;;;;;;5017583;28;20681;-54
2022/09/26 13:37:41;;;;;;;468.08;282.05;;;;;;;;;;5004004;28;20195;-55
2022/09/26 13:40:20;;;;;;;398.13;254.80;;;;;;;;;;5031177;28;20250;-54
2022/09/26 13:43:18;;;;;;;457.52;292.42;;;;;;;;;;5016338;28;20200;-55
2022/09/26 13:45:59;;;;;;;455.70;301.77;;;;;;;;;;5030986;28;20377;-55
2022/09/26 13:48:27;;;;;;;438.30;301.02;;;;;;;;;;5036300;28;20261;-55
2022/09/26 13:50:59;;;;;;;400.60;290.77;;;;;;;;;;5031564;28;20191;-55
2022/09/26 13:53:31;;;;;;;390.63;291.85;;;;;;;;;;5043493;28;20437;-55
2022/09/26 13:56:16;;;;;;;400.63;299.17;;;;;;;;;;5028796;28;20299;-55
2022/09/26 13:58:42;;;;;;;421.77;315.02;;;;;;;;;;5018830;28;20211;-55
2022/09/26 14:01:24;;;;;;;423.35;325.90;;;;;;;;;;5028740;28;20604;-55
2022/09/26 14:04:10;;;;;;;397.98;311.70;;;;;;;;;;5038701;28;20275;-55
2022/09/26 14:06:36;;;;;;;383.20;307.48;;;;;;;;;;5041276;28;20249;-55
2022/09/26 14:09:22;;;;;;;393.00;314.17;;;;;;;;;;5039217;28;20191;-55
2022/09/26 14:11:50;;;;;;;416.33;307.15;;;;;;;;;;5034420;28;20247;-55
2022/09/26 14:14:20;;;;;;;472.77;334.98;;;;;;;;;;5026988;28;20203;-55
2022/09/26 14:16:56;;;;;;;398.83;310.88;;;;;;;;;;5036191;28;20183;-55
2022/09/26 14:19:56;;;;;;;424.48;305.08;;;;;;;;;;5037903;28;20330;-55
2022/09/26 14:22:24;;;;;;;419.02;295.75;;;;;;;;;;5030982;28;20210;-54
2022/09/26 14:24:51;;;;;;;388.02;280.50;;;;;;;;;;5042188;28;20698;-54
2022/09/26 14:27:17;;;;;;;491.75;313.83;;;;;;;;;;5019020;28;20353;-54
2022/09/26 14:29:47;;;;;;;393.70;268.98;;;;;;;;;;5025749;28;20294;-54
2022/09/26 14:32:18;;;;;;;433.48;278.80;;;;;;;;;;5036202;28;20191;-54
2022/09/26 14:34:44;;;;;;;486.95;307.98;;;;;;;;;;5037622;28;20680;-54